sensor_id;sensor_type;location;lat;lon;timestamp;pressure;altitude;pressure_sealevel;temperature;humidity
29941;BME280;16801;53.562;10.038;2023-02-12T00:01:52;103481.38;;;11.26;87.00
29941;BME280;16801;53.562;10.038;2023-02-12T00:05:13;103493.56;;;10.99;88.56
29941;BME280;16801;53.562;10.038;2023-02-12T00:08:36;103498.09;;;10.99;88.98
29941;BME280;16801;53.562;10.038;2023-02-12T00:11:57;103501.91;;;10.76;89.63
29941;BME280;16801;53.562;10.038;2023-02-12T00:15:20;103505.53;;;10.75;89.03
29941;BME280;16801;53.562;10.038;2023-02-12T00:18:41;103499.72;;;10.66;90.08
29941;BME280;16801;53.562;10.038;2023-02-12T00:22:02;103505.13;;;10.66;89.70
29941;BME280;16801;53.562;10.038;2023-02-12T00:25:23;103508.31;;;10.92;88.45
29941;BME280;16801;53.562;10.038;2023-02-12T00:28:44;103509.75;;;11.18;87.86
29941;BME280;16801;53.562;10.038;2023-02-12T00:32:07;103504.56;;;10.58;89.27
29941;BME280;16801;53.562;10.038;2023-02-12T00:35:28;103515.22;;;10.42;90.02
29941;BME280;16801;53.562;10.038;2023-02-12T00:38:50;103516.84;;;10.65;89.26
29941;BME280;16801;53.562;10.038;2023-02-12T00:42:11;103520.72;;;10.59;89.26
29941;BME280;16801;53.562;10.038;2023-02-12T00:45:32;103525.00;;;10.63;89.04
29941;BME280;16801;53.562;10.038;2023-02-12T00:48:54;103529.00;;;10.55;89.10
29941;BME280;16801;53.562;10.038;2023-02-12T00:52:15;103515.72;;;10.50;89.16
29941;BME280;16801;53.562;10.038;2023-02-12T00:55:36;103519.44;;;10.66;88.63
29941;BME280;16801;53.562;10.038;2023-02-12T00:58:57;103517.22;;;10.57;88.91
29941;BME280;16801;53.562;10.038;2023-02-12T01:02:18;103519.44;;;10.66;88.40
29941;BME280;16801;53.562;10.038;2023-02-12T01:05:41;103518.66;;;10.83;88.03
29941;BME280;16801;53.562;10.038;2023-02-12T01:09:02;103518.88;;;10.60;89.37
29941;BME280;16801;53.562;10.038;2023-02-12T01:12:23;103509.56;;;10.28;90.24
29941;BME280;16801;53.562;10.038;2023-02-12T01:15:43;103517.69;;;10.47;89.38
29941;BME280;16801;53.562;10.038;2023-02-12T01:19:04;103524.34;;;10.58;89.35
29941;BME280;16801;53.562;10.038;2023-02-12T01:22:26;103526.53;;;10.69;89.58
29941;BME280;16801;53.562;10.038;2023-02-12T01:25:47;103530.69;;;10.57;89.23
29941;BME280;16801;53.562;10.038;2023-02-12T01:29:09;103528.69;;;10.42;89.09
29941;BME280;16801;53.562;10.038;2023-02-12T01:32:30;103526.91;;;10.61;88.63
29941;BME280;16801;53.562;10.038;2023-02-12T01:35:51;103535.00;;;10.61;88.61
29941;BME280;16801;53.562;10.038;2023-02-12T01:39:13;103537.47;;;10.47;89.03
29941;BME280;16801;53.562;10.038;2023-02-12T01:42:34;103543.00;;;10.24;90.13
29941;BME280;16801;53.562;10.038;2023-02-12T01:45:58;103534.50;;;10.33;89.69
29941;BME280;16801;53.562;10.038;2023-02-12T01:49:23;103541.44;;;10.38;89.14
29941;BME280;16801;53.562;10.038;2023-02-12T01:52:49;103543.34;;;10.36;89.01
29941;BME280;16801;53.562;10.038;2023-02-12T01:56:12;103546.06;;;10.55;87.92
29941;BME280;16801;53.562;10.038;2023-02-12T01:59:35;103553.06;;;10.59;88.03
29941;BME280;16801;53.562;10.038;2023-02-12T02:02:59;103541.72;;;10.71;86.86
29941;BME280;16801;53.562;10.038;2023-02-12T02:06:24;103546.59;;;10.43;88.26
29941;BME280;16801;53.562;10.038;2023-02-12T02:09:46;103549.31;;;10.82;86.80
29941;BME280;16801;53.562;10.038;2023-02-12T02:13:08;103539.81;;;10.92;86.25
29941;BME280;16801;53.562;10.038;2023-02-12T02:16:56;103538.50;;;11.00;85.92
29941;BME280;16801;53.562;10.038;2023-02-12T02:20:41;103535.50;;;11.06;85.91
29941;BME280;16801;53.562;10.038;2023-02-12T02:24:33;103534.19;;;11.15;85.21
29941;BME280;16801;53.562;10.038;2023-02-12T02:28:05;103539.16;;;11.05;85.99
29941;BME280;16801;53.562;10.038;2023-02-12T02:31:39;103539.44;;;10.99;85.94
29941;BME280;16801;53.562;10.038;2023-02-12T02:35:04;103547.44;;;10.45;86.76
29941;BME280;16801;53.562;10.038;2023-02-12T02:38:31;103552.13;;;10.79;86.29
29941;BME280;16801;53.562;10.038;2023-02-12T02:41:58;103549.38;;;10.80;85.65
29941;BME280;16801;53.562;10.038;2023-02-12T02:45:25;103546.19;;;10.52;87.30
29941;BME280;16801;53.562;10.038;2023-02-12T02:48:53;103543.03;;;10.81;85.66
29941;BME280;16801;53.562;10.038;2023-02-12T02:52:19;103546.81;;;11.14;84.40
29941;BME280;16801;53.562;10.038;2023-02-12T02:55:44;103544.81;;;11.37;84.20
29941;BME280;16801;53.562;10.038;2023-02-12T02:59:09;103545.81;;;10.98;84.89
29941;BME280;16801;53.562;10.038;2023-02-12T03:02:36;103546.31;;;10.88;85.60
29941;BME280;16801;53.562;10.038;2023-02-12T03:06:02;103557.00;;;10.71;85.96
29941;BME280;16801;53.562;10.038;2023-02-12T03:09:27;103551.81;;;10.66;86.51
29941;BME280;16801;53.562;10.038;2023-02-12T03:12:53;103548.34;;;10.83;86.11
29941;BME280;16801;53.562;10.038;2023-02-12T03:16:19;103560.69;;;10.88;85.38
29941;BME280;16801;53.562;10.038;2023-02-12T03:19:44;103562.72;;;11.02;84.33
29941;BME280;16801;53.562;10.038;2023-02-12T03:23:10;103559.38;;;10.97;84.72
29941;BME280;16801;53.562;10.038;2023-02-12T03:26:38;103556.81;;;11.12;84.79
29941;BME280;16801;53.562;10.038;2023-02-12T03:30:01;103561.81;;;10.83;85.25
29941;BME280;16801;53.562;10.038;2023-02-12T03:33:28;103556.44;;;11.01;84.66
29941;BME280;16801;53.562;10.038;2023-02-12T03:36:56;103555.59;;;11.01;84.75
29941;BME280;16801;53.562;10.038;2023-02-12T03:40:24;103568.09;;;11.20;84.65
29941;BME280;16801;53.562;10.038;2023-02-12T03:43:50;103561.75;;;11.40;83.53
29941;BME280;16801;53.562;10.038;2023-02-12T03:47:19;103564.31;;;11.24;83.71
29941;BME280;16801;53.562;10.038;2023-02-12T03:50:47;103571.56;;;11.05;84.96
29941;BME280;16801;53.562;10.038;2023-02-12T03:54:15;103581.69;;;11.00;85.55
29941;BME280;16801;53.562;10.038;2023-02-12T03:57:41;103584.50;;;10.79;86.33
29941;BME280;16801;53.562;10.038;2023-02-12T04:01:04;103593.34;;;10.82;86.62
29941;BME280;16801;53.562;10.038;2023-02-12T04:04:25;103588.34;;;10.14;89.06
29941;BME280;16801;53.562;10.038;2023-02-12T04:07:46;103600.16;;;9.90;90.55
29941;BME280;16801;53.562;10.038;2023-02-12T04:11:18;103593.66;;;10.56;88.31
29941;BME280;16801;53.562;10.038;2023-02-12T04:14:45;103598.72;;;10.64;87.65
29941;BME280;16801;53.562;10.038;2023-02-12T04:18:13;103595.97;;;10.84;86.25
29941;BME280;16801;53.562;10.038;2023-02-12T04:21:42;103591.78;;;10.97;86.05
29941;BME280;16801;53.562;10.038;2023-02-12T04:25:15;103591.31;;;10.87;85.62
29941;BME280;16801;53.562;10.038;2023-02-12T04:28:45;103594.81;;;10.89;85.75
29941;BME280;16801;53.562;10.038;2023-02-12T04:32:13;103599.78;;;10.98;85.50
29941;BME280;16801;53.562;10.038;2023-02-12T04:35:39;103606.56;;;10.88;86.55
29941;BME280;16801;53.562;10.038;2023-02-12T04:39:05;103610.66;;;11.15;85.62
29941;BME280;16801;53.562;10.038;2023-02-12T04:42:29;103616.28;;;10.72;87.44
29941;BME280;16801;53.562;10.038;2023-02-12T04:45:50;103611.56;;;10.77;86.81
29941;BME280;16801;53.562;10.038;2023-02-12T04:49:14;103620.97;;;10.69;87.62
29941;BME280;16801;53.562;10.038;2023-02-12T04:52:35;103615.69;;;11.04;86.62
29941;BME280;16801;53.562;10.038;2023-02-12T04:55:56;103617.50;;;10.85;86.86
29941;BME280;16801;53.562;10.038;2023-02-12T04:59:17;103616.03;;;10.58;89.51
29941;BME280;16801;53.562;10.038;2023-02-12T05:02:38;103610.63;;;10.78;89.01
29941;BME280;16801;53.562;10.038;2023-02-12T05:06:03;103605.72;;;10.68;88.81
29941;BME280;16801;53.562;10.038;2023-02-12T05:09:23;103618.28;;;10.28;90.68
29941;BME280;16801;53.562;10.038;2023-02-12T05:12:44;103612.16;;;10.45;89.52
29941;BME280;16801;53.562;10.038;2023-02-12T05:16:06;103613.06;;;10.84;89.26
29941;BME280;16801;53.562;10.038;2023-02-12T05:19:27;103614.56;;;10.11;91.87
29941;BME280;16801;53.562;10.038;2023-02-12T05:22:51;103607.59;;;10.47;91.10
29941;BME280;16801;53.562;10.038;2023-02-12T05:26:14;103616.53;;;10.27;92.73
29941;BME280;16801;53.562;10.038;2023-02-12T05:29:35;103621.88;;;10.49;91.54
29941;BME280;16801;53.562;10.038;2023-02-12T05:32:56;103617.94;;;10.56;91.49
29941;BME280;16801;53.562;10.038;2023-02-12T05:36:19;103614.25;;;10.38;92.28
29941;BME280;16801;53.562;10.038;2023-02-12T05:39:44;103624.06;;;10.39;92.79
29941;BME280;16801;53.562;10.038;2023-02-12T05:43:05;103612.88;;;10.69;91.20
29941;BME280;16801;53.562;10.038;2023-02-12T05:46:26;103637.56;;;9.98;93.84
29941;BME280;16801;53.562;10.038;2023-02-12T05:49:47;103634.53;;;10.67;91.64
29941;BME280;16801;53.562;10.038;2023-02-12T05:53:08;103634.50;;;11.06;89.59
29941;BME280;16801;53.562;10.038;2023-02-12T05:56:32;103635.50;;;10.85;89.88
29941;BME280;16801;53.562;10.038;2023-02-12T05:59:53;103642.41;;;11.29;88.40
29941;BME280;16801;53.562;10.038;2023-02-12T06:03:14;103641.75;;;11.05;89.26
29941;BME280;16801;53.562;10.038;2023-02-12T06:06:35;103636.91;;;11.12;88.84
29941;BME280;16801;53.562;10.038;2023-02-12T06:09:56;103637.00;;;11.29;88.10
29941;BME280;16801;53.562;10.038;2023-02-12T06:13:19;103647.88;;;10.50;90.92
29941;BME280;16801;53.562;10.038;2023-02-12T06:16:42;103638.81;;;11.10;88.53
29941;BME280;16801;53.562;10.038;2023-02-12T06:20:04;103640.59;;;10.52;91.30
29941;BME280;16801;53.562;10.038;2023-02-12T06:23:25;103646.94;;;10.51;91.46
29941;BME280;16801;53.562;10.038;2023-02-12T06:26:48;103648.84;;;10.07;93.47
29941;BME280;16801;53.562;10.038;2023-02-12T06:30:12;103640.25;;;9.98;94.68
29941;BME280;16801;53.562;10.038;2023-02-12T06:33:33;103639.44;;;9.96;95.76
29941;BME280;16801;53.562;10.038;2023-02-12T06:36:55;103641.06;;;10.41;93.31
29941;BME280;16801;53.562;10.038;2023-02-12T06:40:16;103649.69;;;10.50;92.34
29941;BME280;16801;53.562;10.038;2023-02-12T06:43:37;103647.72;;;10.13;94.60
29941;BME280;16801;53.562;10.038;2023-02-12T06:46:59;103655.03;;;10.71;93.07
29941;BME280;16801;53.562;10.038;2023-02-12T06:50:20;103656.91;;;10.29;92.81
29941;BME280;16801;53.562;10.038;2023-02-12T06:53:42;103668.31;;;10.35;93.72
29941;BME280;16801;53.562;10.038;2023-02-12T06:57:03;103671.72;;;10.39;93.51
29941;BME280;16801;53.562;10.038;2023-02-12T07:00:24;103678.13;;;10.16;94.66
29941;BME280;16801;53.562;10.038;2023-02-12T07:03:49;103680.63;;;9.78;97.07
29941;BME280;16801;53.562;10.038;2023-02-12T07:07:10;103692.34;;;9.53;98.03
29941;BME280;16801;53.562;10.038;2023-02-12T07:10:31;103687.78;;;10.22;95.35
29941;BME280;16801;53.562;10.038;2023-02-12T07:13:52;103691.78;;;10.12;95.74
29941;BME280;16801;53.562;10.038;2023-02-12T07:17:14;103693.22;;;9.99;96.03
29941;BME280;16801;53.562;10.038;2023-02-12T07:20:36;103693.88;;;10.04;96.79
29941;BME280;16801;53.562;10.038;2023-02-12T07:23:56;103699.88;;;10.12;96.15
29941;BME280;16801;53.562;10.038;2023-02-12T07:27:17;103706.75;;;10.40;94.29
29941;BME280;16801;53.562;10.038;2023-02-12T07:30:38;103709.09;;;10.28;95.63
29941;BME280;16801;53.562;10.038;2023-02-12T07:34:00;103713.91;;;10.62;94.14
29941;BME280;16801;53.562;10.038;2023-02-12T07:37:22;103715.44;;;10.04;96.95
29941;BME280;16801;53.562;10.038;2023-02-12T07:40:43;103711.41;;;10.57;95.35
29941;BME280;16801;53.562;10.038;2023-02-12T07:44:06;103705.88;;;10.18;95.68
29941;BME280;16801;53.562;10.038;2023-02-12T07:47:29;103715.81;;;10.60;93.73
29941;BME280;16801;53.562;10.038;2023-02-12T07:50:50;103712.84;;;10.24;96.56
29941;BME280;16801;53.562;10.038;2023-02-12T07:54:13;103722.75;;;10.65;93.66
29941;BME280;16801;53.562;10.038;2023-02-12T07:57:34;103713.75;;;10.44;94.96
29941;BME280;16801;53.562;10.038;2023-02-12T08:00:55;103720.03;;;10.45;95.01
29941;BME280;16801;53.562;10.038;2023-02-12T08:04:17;103708.84;;;10.54;94.47
29941;BME280;16801;53.562;10.038;2023-02-12T08:07:38;103715.31;;;10.90;92.94
29941;BME280;16801;53.562;10.038;2023-02-12T08:11:01;103723.94;;;10.38;94.21
29941;BME280;16801;53.562;10.038;2023-02-12T08:14:22;103725.16;;;10.91;92.53
29941;BME280;16801;53.562;10.038;2023-02-12T08:17:42;103728.25;;;10.42;94.66
29941;BME280;16801;53.562;10.038;2023-02-12T08:21:05;103720.44;;;10.56;94.38
29941;BME280;16801;53.562;10.038;2023-02-12T08:24:26;103725.28;;;10.68;94.49
29941;BME280;16801;53.562;10.038;2023-02-12T08:27:48;103722.59;;;10.68;93.94
29941;BME280;16801;53.562;10.038;2023-02-12T08:31:14;103733.69;;;10.82;93.67
29941;BME280;16801;53.562;10.038;2023-02-12T08:34:36;103733.25;;;10.71;93.66
29941;BME280;16801;53.562;10.038;2023-02-12T08:37:56;103740.00;;;11.01;93.18
29941;BME280;16801;53.562;10.038;2023-02-12T08:41:21;103742.03;;;11.35;90.81
29941;BME280;16801;53.562;10.038;2023-02-12T08:44:44;103751.13;;;10.94;92.71
29941;BME280;16801;53.562;10.038;2023-02-12T08:48:04;103740.44;;;11.50;89.63
29941;BME280;16801;53.562;10.038;2023-02-12T08:51:28;103747.09;;;11.43;89.38
29941;BME280;16801;53.562;10.038;2023-02-12T08:54:49;103755.66;;;10.73;92.91
29941;BME280;16801;53.562;10.038;2023-02-12T08:58:10;103748.44;;;10.94;91.97
29941;BME280;16801;53.562;10.038;2023-02-12T09:01:34;103758.91;;;10.61;92.70
29941;BME280;16801;53.562;10.038;2023-02-12T09:04:57;103752.31;;;11.27;90.60
29941;BME280;16801;53.562;10.038;2023-02-12T09:08:17;103766.84;;;11.24;91.08
29941;BME280;16801;53.562;10.038;2023-02-12T09:11:38;103763.88;;;11.10;91.40
29941;BME280;16801;53.562;10.038;2023-02-12T09:14:59;103764.97;;;11.06;91.13
29941;BME280;16801;53.562;10.038;2023-02-12T09:18:21;103757.53;;;11.50;89.48
29941;BME280;16801;53.562;10.038;2023-02-12T09:21:42;103770.16;;;11.50;89.57
29941;BME280;16801;53.562;10.038;2023-02-12T09:25:04;103771.47;;;11.41;88.79
29941;BME280;16801;53.562;10.038;2023-02-12T09:28:25;103768.47;;;11.08;90.50
29941;BME280;16801;53.562;10.038;2023-02-12T09:31:46;103766.72;;;11.27;89.88
29941;BME280;16801;53.562;10.038;2023-02-12T09:35:08;103766.59;;;10.90;92.24
29941;BME280;16801;53.562;10.038;2023-02-12T09:38:31;103778.25;;;10.71;93.11
29941;BME280;16801;53.562;10.038;2023-02-12T09:42:13;103778.28;;;10.91;92.33
29941;BME280;16801;53.562;10.038;2023-02-12T09:45:41;103785.47;;;10.70;93.99
29941;BME280;16801;53.562;10.038;2023-02-12T09:49:07;103785.41;;;11.12;91.49
29941;BME280;16801;53.562;10.038;2023-02-12T09:52:32;103785.28;;;11.74;89.00
29941;BME280;16801;53.562;10.038;2023-02-12T09:55:54;103787.53;;;11.05;90.77
29941;BME280;16801;53.562;10.038;2023-02-12T09:59:22;103790.41;;;11.21;90.63
29941;BME280;16801;53.562;10.038;2023-02-12T10:02:49;103792.84;;;11.07;92.08
29941;BME280;16801;53.562;10.038;2023-02-12T10:06:13;103795.00;;;11.19;91.15
29941;BME280;16801;53.562;10.038;2023-02-12T10:09:46;103803.44;;;11.32;90.26
29941;BME280;16801;53.562;10.038;2023-02-12T10:13:17;103793.53;;;11.51;90.33
29941;BME280;16801;53.562;10.038;2023-02-12T10:16:48;103798.56;;;11.40;89.66
29941;BME280;16801;53.562;10.038;2023-02-12T10:20:35;103812.03;;;11.60;89.95
29941;BME280;16801;53.562;10.038;2023-02-12T10:24:10;103808.16;;;11.06;92.29
29941;BME280;16801;53.562;10.038;2023-02-12T10:27:38;103803.81;;;11.43;90.61
29941;BME280;16801;53.562;10.038;2023-02-12T10:31:01;103798.09;;;11.10;91.91
29941;BME280;16801;53.562;10.038;2023-02-12T10:34:25;103801.56;;;11.13;91.00
29941;BME280;16801;53.562;10.038;2023-02-12T10:37:50;103805.00;;;10.55;94.19
29941;BME280;16801;53.562;10.038;2023-02-12T10:41:14;103801.06;;;10.84;93.60
29941;BME280;16801;53.562;10.038;2023-02-12T10:44:37;103791.81;;;10.69;93.87
29941;BME280;16801;53.562;10.038;2023-02-12T10:48:06;103798.41;;;10.62;95.38
29941;BME280;16801;53.562;10.038;2023-02-12T10:51:42;103797.28;;;10.24;95.72
29941;BME280;16801;53.562;10.038;2023-02-12T10:55:26;103796.78;;;10.58;96.00
29941;BME280;16801;53.562;10.038;2023-02-12T10:58:53;103790.97;;;10.89;93.95
29941;BME280;16801;53.562;10.038;2023-02-12T11:02:25;103785.50;;;10.49;94.62
29941;BME280;16801;53.562;10.038;2023-02-12T11:05:46;103782.75;;;10.70;93.45
29941;BME280;16801;53.562;10.038;2023-02-12T11:09:26;103785.69;;;10.86;93.40
29941;BME280;16801;53.562;10.038;2023-02-12T11:12:48;103779.34;;;10.87;93.84
29941;BME280;16801;53.562;10.038;2023-02-12T11:16:09;103782.44;;;10.78;93.79
29941;BME280;16801;53.562;10.038;2023-02-12T11:19:32;103784.25;;;10.97;93.22
29941;BME280;16801;53.562;10.038;2023-02-12T11:22:57;103780.56;;;10.80;94.16
29941;BME280;16801;53.562;10.038;2023-02-12T11:26:26;103776.78;;;10.84;94.54
29941;BME280;16801;53.562;10.038;2023-02-12T11:30:06;103774.19;;;10.81;94.63
29941;BME280;16801;53.562;10.038;2023-02-12T11:33:32;103778.59;;;10.83;93.82
29941;BME280;16801;53.562;10.038;2023-02-12T11:36:56;103769.50;;;10.66;94.47
29941;BME280;16801;53.562;10.038;2023-02-12T11:40:19;103766.75;;;11.07;93.67
29941;BME280;16801;53.562;10.038;2023-02-12T11:43:41;103767.94;;;11.00;93.57
29941;BME280;16801;53.562;10.038;2023-02-12T11:47:05;103761.31;;;11.27;93.06
29941;BME280;16801;53.562;10.038;2023-02-12T11:50:29;103771.78;;;11.15;92.62
29941;BME280;16801;53.562;10.038;2023-02-12T11:53:53;103767.66;;;10.66;95.32
29941;BME280;16801;53.562;10.038;2023-02-12T11:57:35;103760.88;;;10.78;94.65
29941;BME280;16801;53.562;10.038;2023-02-12T12:01:18;103760.34;;;11.28;92.86
29941;BME280;16801;53.562;10.038;2023-02-12T12:04:40;103758.09;;;11.19;92.29
29941;BME280;16801;53.562;10.038;2023-02-12T12:08:09;103759.66;;;11.62;91.64
29941;BME280;16801;53.562;10.038;2023-02-12T12:11:39;103757.28;;;11.17;92.59
29941;BME280;16801;53.562;10.038;2023-02-12T12:15:03;103762.31;;;10.65;94.50
29941;BME280;16801;53.562;10.038;2023-02-12T12:18:46;103766.47;;;11.13;93.61
29941;BME280;16801;53.562;10.038;2023-02-12T12:22:43;103757.41;;;10.94;94.37
29941;BME280;16801;53.562;10.038;2023-02-12T12:26:10;103757.00;;;10.63;95.50
29941;BME280;16801;53.562;10.038;2023-02-12T12:29:43;103747.44;;;10.96;95.30
29941;BME280;16801;53.562;10.038;2023-02-12T12:33:13;103748.97;;;11.02;94.08
29941;BME280;16801;53.562;10.038;2023-02-12T12:36:54;103750.63;;;11.24;93.63
29941;BME280;16801;53.562;10.038;2023-02-12T12:40:38;103743.88;;;10.76;95.11
29941;BME280;16801;53.562;10.038;2023-02-12T12:44:13;103732.91;;;11.38;92.88
29941;BME280;16801;53.562;10.038;2023-02-12T12:47:51;103732.97;;;11.17;93.26
29941;BME280;16801;53.562;10.038;2023-02-12T12:51:29;103720.53;;;11.52;91.07
29941;BME280;16801;53.562;10.038;2023-02-12T12:58:50;103718.31;;;11.42;93.04
29941;BME280;16801;53.562;10.038;2023-02-12T13:02:29;103711.97;;;12.34;89.33
29941;BME280;16801;53.562;10.038;2023-02-12T13:06:22;103706.56;;;12.34;89.15
29941;BME280;16801;53.562;10.038;2023-02-12T13:10:02;103708.63;;;12.46;88.50
29941;BME280;16801;53.562;10.038;2023-02-12T13:13:31;103709.41;;;11.95;89.11
29941;BME280;16801;53.562;10.038;2023-02-12T13:16:59;103710.84;;;12.21;88.53
29941;BME280;16801;53.562;10.038;2023-02-12T13:20:30;103702.91;;;12.69;87.30
29941;BME280;16801;53.562;10.038;2023-02-12T13:23:59;103703.22;;;12.63;86.96
29941;BME280;16801;53.562;10.038;2023-02-12T13:27:25;103701.16;;;12.51;87.22
29941;BME280;16801;53.562;10.038;2023-02-12T13:30:48;103714.53;;;11.64;89.38
29941;BME280;16801;53.562;10.038;2023-02-12T13:34:13;103705.13;;;11.91;89.44
29941;BME280;16801;53.562;10.038;2023-02-12T13:37:41;103707.13;;;11.69;91.07
29941;BME280;16801;53.562;10.038;2023-02-12T13:41:07;103704.84;;;12.15;89.65
29941;BME280;16801;53.562;10.038;2023-02-12T13:44:32;103709.63;;;12.27;89.46
29941;BME280;16801;53.562;10.038;2023-02-12T13:48:08;103699.22;;;12.70;86.49
29941;BME280;16801;53.562;10.038;2023-02-12T13:51:40;103707.19;;;12.22;88.19
29941;BME280;16801;53.562;10.038;2023-02-12T13:55:18;103705.47;;;12.55;86.91
29941;BME280;16801;53.562;10.038;2023-02-12T13:58:48;103695.09;;;12.29;89.07
29941;BME280;16801;53.562;10.038;2023-02-12T14:06:07;103692.31;;;12.48;86.80
29941;BME280;16801;53.562;10.038;2023-02-12T14:09:33;103695.50;;;12.39;86.81
29941;BME280;16801;53.562;10.038;2023-02-12T14:13:08;103688.16;;;12.75;86.20
29941;BME280;16801;53.562;10.038;2023-02-12T14:16:37;103681.34;;;12.68;85.14
29941;BME280;16801;53.562;10.038;2023-02-12T14:20:07;103681.06;;;12.72;85.17
29941;BME280;16801;53.562;10.038;2023-02-12T14:23:28;103695.88;;;12.31;85.48
29941;BME280;16801;53.562;10.038;2023-02-12T14:26:51;103690.59;;;11.75;88.47
29941;BME280;16801;53.562;10.038;2023-02-12T14:30:31;103696.25;;;12.07;87.66
29941;BME280;16801;53.562;10.038;2023-02-12T14:42:42;103700.81;;;11.87;89.05
29941;BME280;16801;53.562;10.038;2023-02-12T14:50:02;103694.31;;;12.61;85.46
29941;BME280;16801;53.562;10.038;2023-02-12T14:53:29;103703.28;;;12.79;83.94
29941;BME280;16801;53.562;10.038;2023-02-12T14:56:51;103701.78;;;12.56;85.15
29941;BME280;16801;53.562;10.038;2023-02-12T15:00:22;103702.81;;;12.88;84.04
29941;BME280;16801;53.562;10.038;2023-02-12T15:03:49;103697.28;;;12.90;83.75
29941;BME280;16801;53.562;10.038;2023-02-12T15:07:22;103696.59;;;12.86;83.14
29941;BME280;16801;53.562;10.038;2023-02-12T15:10:48;103704.91;;;12.49;84.14
29941;BME280;16801;53.562;10.038;2023-02-12T15:14:14;103715.84;;;12.29;84.65
29941;BME280;16801;53.562;10.038;2023-02-12T15:17:38;103715.00;;;12.45;84.58
29941;BME280;16801;53.562;10.038;2023-02-12T15:21:07;103714.50;;;12.37;83.77
29941;BME280;16801;53.562;10.038;2023-02-12T15:24:33;103710.78;;;12.40;83.66
29941;BME280;16801;53.562;10.038;2023-02-12T15:27:56;103702.03;;;12.52;82.61
29941;BME280;16801;53.562;10.038;2023-02-12T15:31:20;103703.59;;;12.56;82.03
29941;BME280;16801;53.562;10.038;2023-02-12T15:34:41;103705.75;;;12.66;81.72
29941;BME280;16801;53.562;10.038;2023-02-12T15:38:03;103701.94;;;12.70;81.82
29941;BME280;16801;53.562;10.038;2023-02-12T15:41:33;103704.13;;;12.64;82.19
29941;BME280;16801;53.562;10.038;2023-02-12T15:48:38;103704.66;;;12.53;82.19
29941;BME280;16801;53.562;10.038;2023-02-12T15:52:01;103712.22;;;12.47;82.67
29941;BME280;16801;53.562;10.038;2023-02-12T15:55:26;103714.84;;;12.48;82.93
29941;BME280;16801;53.562;10.038;2023-02-12T15:58:51;103710.03;;;12.19;83.56
29941;BME280;16801;53.562;10.038;2023-02-12T16:02:18;103719.91;;;12.37;82.44
29941;BME280;16801;53.562;10.038;2023-02-12T16:05:40;103719.78;;;12.40;82.59
29941;BME280;16801;53.562;10.038;2023-02-12T16:09:04;103716.81;;;12.28;82.78
29941;BME280;16801;53.562;10.038;2023-02-12T16:12:29;103713.47;;;12.40;82.08
29941;BME280;16801;53.562;10.038;2023-02-12T16:16:05;103725.00;;;12.43;82.00
29941;BME280;16801;53.562;10.038;2023-02-12T16:19:28;103729.25;;;12.49;81.39
29941;BME280;16801;53.562;10.038;2023-02-12T16:22:49;103731.00;;;12.50;80.74
29941;BME280;16801;53.562;10.038;2023-02-12T16:26:15;103733.94;;;12.79;80.46
29941;BME280;16801;53.562;10.038;2023-02-12T16:29:43;103734.25;;;12.39;80.34
29941;BME280;16801;53.562;10.038;2023-02-12T16:33:32;103740.41;;;12.60;79.91
29941;BME280;16801;53.562;10.038;2023-02-12T16:36:54;103736.16;;;12.37;80.86
29941;BME280;16801;53.562;10.038;2023-02-12T16:40:26;103750.47;;;12.22;80.86
29941;BME280;16801;53.562;10.038;2023-02-12T16:43:50;103751.19;;;12.26;80.91
29941;BME280;16801;53.562;10.038;2023-02-12T16:47:30;103750.91;;;12.66;79.78
29941;BME280;16801;53.562;10.038;2023-02-12T16:50:55;103758.53;;;12.58;79.67
29941;BME280;16801;53.562;10.038;2023-02-12T16:54:28;103753.19;;;12.56;80.14
29941;BME280;16801;53.562;10.038;2023-02-12T16:57:49;103754.63;;;12.46;80.16
29941;BME280;16801;53.562;10.038;2023-02-12T17:01:15;103753.28;;;12.55;79.73
29941;BME280;16801;53.562;10.038;2023-02-12T17:04:37;103755.88;;;12.39;80.37
29941;BME280;16801;53.562;10.038;2023-02-12T17:07:59;103752.66;;;12.14;81.18
29941;BME280;16801;53.562;10.038;2023-02-12T17:11:20;103754.41;;;12.15;80.46
29941;BME280;16801;53.562;10.038;2023-02-12T17:14:42;103758.53;;;12.05;81.70
29941;BME280;16801;53.562;10.038;2023-02-12T17:18:03;103756.69;;;12.24;80.75
29941;BME280;16801;53.562;10.038;2023-02-12T17:21:26;103751.00;;;12.12;80.97
29941;BME280;16801;53.562;10.038;2023-02-12T17:24:49;103763.31;;;12.17;81.96
29941;BME280;16801;53.562;10.038;2023-02-12T17:28:11;103758.97;;;11.96;82.13
29941;BME280;16801;53.562;10.038;2023-02-12T17:31:32;103762.44;;;11.61;83.33
29941;BME280;16801;53.562;10.038;2023-02-12T17:34:55;103764.97;;;11.84;82.54
29941;BME280;16801;53.562;10.038;2023-02-12T17:38:16;103774.88;;;12.02;81.54
29941;BME280;16801;53.562;10.038;2023-02-12T17:41:38;103776.72;;;12.01;82.25
29941;BME280;16801;53.562;10.038;2023-02-12T17:44:58;103782.41;;;11.95;81.82
29941;BME280;16801;53.562;10.038;2023-02-12T17:48:19;103772.91;;;11.87;82.13
29941;BME280;16801;53.562;10.038;2023-02-12T17:51:43;103770.41;;;11.64;82.97
29941;BME280;16801;53.562;10.038;2023-02-12T17:55:05;103772.78;;;11.90;81.79
29941;BME280;16801;53.562;10.038;2023-02-12T17:58:27;103773.22;;;11.81;83.07
29941;BME280;16801;53.562;10.038;2023-02-12T18:01:48;103771.69;;;11.75;83.34
29941;BME280;16801;53.562;10.038;2023-02-12T18:05:09;103764.94;;;11.65;83.68